sensor_id;sensor_type;location;lat;lon;timestamp;P1;durP1;ratioP1;P2;durP2;ratioP2
479;SDS011;226;48.606;9.096;2023-06-22T00:00:41;14.10;;;7.50;;
479;SDS011;226;48.606;9.096;2023-06-22T00:03:10;10.40;;;6.10;;
479;SDS011;226;48.606;9.096;2023-06-22T00:05:39;10.77;;;6.27;;
479;SDS011;226;48.606;9.096;2023-06-22T00:08:07;10.80;;;6.80;;
479;SDS011;226;48.606;9.096;2023-06-22T00:10:36;13.13;;;6.80;;
479;SDS011;226;48.606;9.096;2023-06-22T00:13:05;13.37;;;6.60;;
479;SDS011;226;48.606;9.096;2023-06-22T00:15:35;12.67;;;5.93;;
479;SDS011;226;48.606;9.096;2023-06-22T00:18:06;21.03;;;7.40;;
479;SDS011;226;48.606;9.096;2023-06-22T00:20:35;12.07;;;6.77;;
479;SDS011;226;48.606;9.096;2023-06-22T00:23:04;13.47;;;6.93;;
479;SDS011;226;48.606;9.096;2023-06-22T00:25:34;14.37;;;6.67;;
479;SDS011;226;48.606;9.096;2023-06-22T00:28:03;15.60;;;7.90;;
479;SDS011;226;48.606;9.096;2023-06-22T00:30:32;17.60;;;6.80;;
479;SDS011;226;48.606;9.096;2023-06-22T00:33:02;19.77;;;7.30;;
479;SDS011;226;48.606;9.096;2023-06-22T00:35:34;14.40;;;6.60;;
479;SDS011;226;48.606;9.096;2023-06-22T00:38:02;13.40;;;6.80;;
479;SDS011;226;48.606;9.096;2023-06-22T00:40:31;10.80;;;6.13;;
479;SDS011;226;48.606;9.096;2023-06-22T00:43:00;17.93;;;8.17;;
479;SDS011;226;48.606;9.096;2023-06-22T00:45:29;14.83;;;7.70;;
479;SDS011;226;48.606;9.096;2023-06-22T00:47:57;13.10;;;7.50;;
479;SDS011;226;48.606;9.096;2023-06-22T00:50:28;10.80;;;6.63;;
479;SDS011;226;48.606;9.096;2023-06-22T00:53:01;19.37;;;6.27;;
479;SDS011;226;48.606;9.096;2023-06-22T00:55:35;16.37;;;6.00;;
479;SDS011;226;48.606;9.096;2023-06-22T00:58:05;12.50;;;6.90;;
479;SDS011;226;48.606;9.096;2023-06-22T01:00:37;15.27;;;8.47;;
479;SDS011;226;48.606;9.096;2023-06-22T01:03:05;15.60;;;8.03;;
479;SDS011;226;48.606;9.096;2023-06-22T01:05:38;14.00;;;6.77;;
479;SDS011;226;48.606;9.096;2023-06-22T01:08:13;11.90;;;6.77;;
479;SDS011;226;48.606;9.096;2023-06-22T01:10:44;17.47;;;7.80;;
479;SDS011;226;48.606;9.096;2023-06-22T01:13:16;13.00;;;7.40;;
479;SDS011;226;48.606;9.096;2023-06-22T01:15:47;13.17;;;7.33;;
479;SDS011;226;48.606;9.096;2023-06-22T01:18:17;14.40;;;8.27;;
479;SDS011;226;48.606;9.096;2023-06-22T01:20:46;14.83;;;8.60;;
479;SDS011;226;48.606;9.096;2023-06-22T01:23:18;18.90;;;8.47;;
479;SDS011;226;48.606;9.096;2023-06-22T01:25:52;16.93;;;8.50;;
479;SDS011;226;48.606;9.096;2023-06-22T01:28:34;16.73;;;8.90;;
479;SDS011;226;48.606;9.096;2023-06-22T01:31:03;13.43;;;8.47;;
479;SDS011;226;48.606;9.096;2023-06-22T01:33:33;14.10;;;7.90;;
479;SDS011;226;48.606;9.096;2023-06-22T01:36:02;17.43;;;8.60;;
479;SDS011;226;48.606;9.096;2023-06-22T01:38:30;17.53;;;9.30;;
479;SDS011;226;48.606;9.096;2023-06-22T01:40:59;16.20;;;8.30;;
479;SDS011;226;48.606;9.096;2023-06-22T01:43:28;18.47;;;8.30;;
479;SDS011;226;48.606;9.096;2023-06-22T01:46:00;14.53;;;7.40;;
479;SDS011;226;48.606;9.096;2023-06-22T01:48:29;13.70;;;7.83;;
479;SDS011;226;48.606;9.096;2023-06-22T01:50:58;13.00;;;7.80;;
479;SDS011;226;48.606;9.096;2023-06-22T01:53:26;13.27;;;7.20;;
479;SDS011;226;48.606;9.096;2023-06-22T01:55:55;11.80;;;6.83;;
479;SDS011;226;48.606;9.096;2023-06-22T01:58:25;17.10;;;9.07;;
479;SDS011;226;48.606;9.096;2023-06-22T02:00:56;15.90;;;6.77;;
479;SDS011;226;48.606;9.096;2023-06-22T02:03:31;10.77;;;7.70;;
479;SDS011;226;48.606;9.096;2023-06-22T02:06:04;11.30;;;7.03;;
479;SDS011;226;48.606;9.096;2023-06-22T02:08:36;12.60;;;6.87;;
479;SDS011;226;48.606;9.096;2023-06-22T02:11:05;9.90;;;5.97;;
479;SDS011;226;48.606;9.096;2023-06-22T02:13:34;15.33;;;8.10;;
479;SDS011;226;48.606;9.096;2023-06-22T02:16:04;11.10;;;6.93;;
479;SDS011;226;48.606;9.096;2023-06-22T02:18:33;13.60;;;7.70;;
479;SDS011;226;48.606;9.096;2023-06-22T02:21:03;18.37;;;7.90;;
479;SDS011;226;48.606;9.096;2023-06-22T02:23:31;15.30;;;7.50;;
479;SDS011;226;48.606;9.096;2023-06-22T02:26:02;13.27;;;7.03;;
479;SDS011;226;48.606;9.096;2023-06-22T02:28:30;16.90;;;8.67;;
479;SDS011;226;48.606;9.096;2023-06-22T02:30:58;15.17;;;8.43;;
479;SDS011;226;48.606;9.096;2023-06-22T02:33:27;13.87;;;7.60;;
479;SDS011;226;48.606;9.096;2023-06-22T02:35:57;19.10;;;7.77;;
479;SDS011;226;48.606;9.096;2023-06-22T02:38:25;12.33;;;6.83;;
479;SDS011;226;48.606;9.096;2023-06-22T02:40:53;11.80;;;7.50;;
479;SDS011;226;48.606;9.096;2023-06-22T02:43:22;15.73;;;8.17;;
479;SDS011;226;48.606;9.096;2023-06-22T02:45:50;13.93;;;7.33;;
479;SDS011;226;48.606;9.096;2023-06-22T02:48:19;16.27;;;7.80;;
479;SDS011;226;48.606;9.096;2023-06-22T02:50:47;11.40;;;7.50;;
479;SDS011;226;48.606;9.096;2023-06-22T02:53:17;13.37;;;8.00;;
479;SDS011;226;48.606;9.096;2023-06-22T02:55:46;12.87;;;7.40;;
479;SDS011;226;48.606;9.096;2023-06-22T02:58:15;17.70;;;8.10;;
479;SDS011;226;48.606;9.096;2023-06-22T03:00:43;12.03;;;7.57;;
479;SDS011;226;48.606;9.096;2023-06-22T03:03:12;17.07;;;7.73;;
479;SDS011;226;48.606;9.096;2023-06-22T03:05:40;15.07;;;8.07;;
479;SDS011;226;48.606;9.096;2023-06-22T03:08:08;21.60;;;8.20;;
479;SDS011;226;48.606;9.096;2023-06-22T03:10:38;15.63;;;7.73;;
479;SDS011;226;48.606;9.096;2023-06-22T03:13:07;15.47;;;8.03;;
479;SDS011;226;48.606;9.096;2023-06-22T03:15:35;14.10;;;8.00;;
479;SDS011;226;48.606;9.096;2023-06-22T03:18:03;17.53;;;8.90;;
479;SDS011;226;48.606;9.096;2023-06-22T03:20:32;13.27;;;7.40;;
479;SDS011;226;48.606;9.096;2023-06-22T03:23:00;16.33;;;8.37;;
479;SDS011;226;48.606;9.096;2023-06-22T03:25:29;12.40;;;6.40;;
479;SDS011;226;48.606;9.096;2023-06-22T03:27:59;15.90;;;8.53;;
479;SDS011;226;48.606;9.096;2023-06-22T03:30:27;16.83;;;8.47;;
479;SDS011;226;48.606;9.096;2023-06-22T03:32:56;15.77;;;8.23;;
479;SDS011;226;48.606;9.096;2023-06-22T03:35:24;16.40;;;7.40;;
479;SDS011;226;48.606;9.096;2023-06-22T03:37:53;19.93;;;8.27;;
479;SDS011;226;48.606;9.096;2023-06-22T03:40:21;11.10;;;6.80;;
479;SDS011;226;48.606;9.096;2023-06-22T03:42:50;10.20;;;6.70;;
479;SDS011;226;48.606;9.096;2023-06-22T03:45:20;14.73;;;7.30;;
479;SDS011;226;48.606;9.096;2023-06-22T03:47:48;12.23;;;7.90;;
479;SDS011;226;48.606;9.096;2023-06-22T03:50:17;20.30;;;8.27;;
479;SDS011;226;48.606;9.096;2023-06-22T03:52:46;17.67;;;7.77;;
479;SDS011;226;48.606;9.096;2023-06-22T03:55:15;13.00;;;8.37;;
479;SDS011;226;48.606;9.096;2023-06-22T03:57:43;13.47;;;6.83;;
479;SDS011;226;48.606;9.096;2023-06-22T04:00:12;32.47;;;9.20;;
479;SDS011;226;48.606;9.096;2023-06-22T04:02:43;11.33;;;7.03;;
479;SDS011;226;48.606;9.096;2023-06-22T04:05:11;18.53;;;7.13;;
479;SDS011;226;48.606;9.096;2023-06-22T04:07:40;16.17;;;8.17;;
479;SDS011;226;48.606;9.096;2023-06-22T04:10:09;13.67;;;8.10;;
479;SDS011;226;48.606;9.096;2023-06-22T04:12:39;14.03;;;7.67;;
479;SDS011;226;48.606;9.096;2023-06-22T04:15:07;20.07;;;7.40;;
479;SDS011;226;48.606;9.096;2023-06-22T04:17:36;22.83;;;7.70;;
479;SDS011;226;48.606;9.096;2023-06-22T04:20:07;11.97;;;7.37;;
479;SDS011;226;48.606;9.096;2023-06-22T04:22:35;16.00;;;7.90;;
479;SDS011;226;48.606;9.096;2023-06-22T04:25:05;15.53;;;7.77;;
479;SDS011;226;48.606;9.096;2023-06-22T04:27:34;19.57;;;8.70;;
479;SDS011;226;48.606;9.096;2023-06-22T04:30:03;14.43;;;8.30;;
479;SDS011;226;48.606;9.096;2023-06-22T04:32:33;10.27;;;7.37;;
479;SDS011;226;48.606;9.096;2023-06-22T04:35:02;12.10;;;6.40;;
479;SDS011;226;48.606;9.096;2023-06-22T04:37:34;16.00;;;7.00;;
479;SDS011;226;48.606;9.096;2023-06-22T04:40:02;13.93;;;7.00;;
479;SDS011;226;48.606;9.096;2023-06-22T04:42:33;21.40;;;9.13;;
479;SDS011;226;48.606;9.096;2023-06-22T04:45:02;16.77;;;8.47;;
479;SDS011;226;48.606;9.096;2023-06-22T04:47:31;15.00;;;7.20;;
479;SDS011;226;48.606;9.096;2023-06-22T04:49:59;11.70;;;6.47;;
479;SDS011;226;48.606;9.096;2023-06-22T04:52:32;15.20;;;7.03;;
479;SDS011;226;48.606;9.096;2023-06-22T04:55:01;13.77;;;7.50;;
479;SDS011;226;48.606;9.096;2023-06-22T04:57:30;10.60;;;6.80;;
479;SDS011;226;48.606;9.096;2023-06-22T04:59:59;17.50;;;10.17;;
479;SDS011;226;48.606;9.096;2023-06-22T05:02:38;14.77;;;7.20;;
479;SDS011;226;48.606;9.096;2023-06-22T05:05:07;16.33;;;8.87;;
479;SDS011;226;48.606;9.096;2023-06-22T05:07:40;13.47;;;7.23;;
479;SDS011;226;48.606;9.096;2023-06-22T05:10:11;11.33;;;7.00;;
479;SDS011;226;48.606;9.096;2023-06-22T05:12:40;13.80;;;8.00;;
479;SDS011;226;48.606;9.096;2023-06-22T05:15:09;14.23;;;6.80;;
479;SDS011;226;48.606;9.096;2023-06-22T05:17:37;18.07;;;7.40;;
479;SDS011;226;48.606;9.096;2023-06-22T05:20:10;13.00;;;7.27;;
479;SDS011;226;48.606;9.096;2023-06-22T05:22:38;10.77;;;6.17;;
479;SDS011;226;48.606;9.096;2023-06-22T05:25:08;14.10;;;6.40;;
479;SDS011;226;48.606;9.096;2023-06-22T05:27:38;10.47;;;6.37;;
479;SDS011;226;48.606;9.096;2023-06-22T05:30:08;12.20;;;5.47;;
479;SDS011;226;48.606;9.096;2023-06-22T05:32:37;11.63;;;6.83;;
479;SDS011;226;48.606;9.096;2023-06-22T05:35:06;11.17;;;6.30;;
479;SDS011;226;48.606;9.096;2023-06-22T05:37:34;19.63;;;6.50;;
479;SDS011;226;48.606;9.096;2023-06-22T05:40:03;9.07;;;5.73;;
479;SDS011;226;48.606;9.096;2023-06-22T05:42:33;11.13;;;6.13;;
479;SDS011;226;48.606;9.096;2023-06-22T05:45:03;11.70;;;5.47;;
479;SDS011;226;48.606;9.096;2023-06-22T05:47:32;11.47;;;5.60;;
479;SDS011;226;48.606;9.096;2023-06-22T05:50:00;10.13;;;4.57;;
479;SDS011;226;48.606;9.096;2023-06-22T05:52:32;13.93;;;6.40;;
479;SDS011;226;48.606;9.096;2023-06-22T05:55:01;14.80;;;5.60;;
479;SDS011;226;48.606;9.096;2023-06-22T05:57:30;13.63;;;6.53;;
479;SDS011;226;48.606;9.096;2023-06-22T05:59:59;13.43;;;5.33;;
479;SDS011;226;48.606;9.096;2023-06-22T06:02:28;12.07;;;6.30;;
479;SDS011;226;48.606;9.096;2023-06-22T06:04:57;12.77;;;5.00;;
479;SDS011;226;48.606;9.096;2023-06-22T06:07:25;11.27;;;5.57;;
479;SDS011;226;48.606;9.096;2023-06-22T06:09:54;7.10;;;4.40;;
479;SDS011;226;48.606;9.096;2023-06-22T06:12:22;7.67;;;5.00;;
479;SDS011;226;48.606;9.096;2023-06-22T06:14:51;11.00;;;5.47;;
479;SDS011;226;48.606;9.096;2023-06-22T06:17:21;7.03;;;4.17;;
479;SDS011;226;48.606;9.096;2023-06-22T06:19:51;14.57;;;5.43;;
479;SDS011;226;48.606;9.096;2023-06-22T06:22:19;14.57;;;5.60;;
479;SDS011;226;48.606;9.096;2023-06-22T06:24:49;11.60;;;5.50;;
479;SDS011;226;48.606;9.096;2023-06-22T06:27:18;11.00;;;4.87;;
479;SDS011;226;48.606;9.096;2023-06-22T06:29:46;8.73;;;5.70;;
479;SDS011;226;48.606;9.096;2023-06-22T06:32:15;7.07;;;4.17;;
479;SDS011;226;48.606;9.096;2023-06-22T06:34:43;9.80;;;5.23;;
479;SDS011;226;48.606;9.096;2023-06-22T06:37:13;10.43;;;4.40;;
479;SDS011;226;48.606;9.096;2023-06-22T06:39:42;12.93;;;5.80;;
479;SDS011;226;48.606;9.096;2023-06-22T06:42:10;7.70;;;4.23;;
479;SDS011;226;48.606;9.096;2023-06-22T06:44:38;6.57;;;4.67;;
479;SDS011;226;48.606;9.096;2023-06-22T06:47:07;11.07;;;5.90;;
479;SDS011;226;48.606;9.096;2023-06-22T06:49:35;12.10;;;5.23;;
479;SDS011;226;48.606;9.096;2023-06-22T06:52:04;23.00;;;4.70;;
479;SDS011;226;48.606;9.096;2023-06-22T06:54:34;4.90;;;3.80;;
479;SDS011;226;48.606;9.096;2023-06-22T06:57:03;7.67;;;4.50;;
479;SDS011;226;48.606;9.096;2023-06-22T06:59:31;8.43;;;4.50;;
479;SDS011;226;48.606;9.096;2023-06-22T07:02:00;13.20;;;4.93;;
479;SDS011;226;48.606;9.096;2023-06-22T07:04:28;10.10;;;3.80;;
479;SDS011;226;48.606;9.096;2023-06-22T07:06:58;8.23;;;4.50;;
479;SDS011;226;48.606;9.096;2023-06-22T07:09:27;5.70;;;3.90;;
479;SDS011;226;48.606;9.096;2023-06-22T07:11:57;6.73;;;4.20;;
479;SDS011;226;48.606;9.096;2023-06-22T07:14:25;22.40;;;4.60;;
479;SDS011;226;48.606;9.096;2023-06-22T07:16:53;9.23;;;4.43;;
479;SDS011;226;48.606;9.096;2023-06-22T07:19:24;8.80;;;4.43;;
479;SDS011;226;48.606;9.096;2023-06-22T07:21:53;10.00;;;4.17;;
479;SDS011;226;48.606;9.096;2023-06-22T07:24:21;14.10;;;3.80;;
479;SDS011;226;48.606;9.096;2023-06-22T07:26:50;13.20;;;4.83;;
479;SDS011;226;48.606;9.096;2023-06-22T07:29:20;8.17;;;5.03;;
479;SDS011;226;48.606;9.096;2023-06-22T07:31:49;8.67;;;4.00;;
479;SDS011;226;48.606;9.096;2023-06-22T07:34:18;8.00;;;4.37;;
479;SDS011;226;48.606;9.096;2023-06-22T07:36:47;5.37;;;4.00;;
479;SDS011;226;48.606;9.096;2023-06-22T07:39:15;8.47;;;4.17;;
479;SDS011;226;48.606;9.096;2023-06-22T07:41:44;10.43;;;4.13;;
479;SDS011;226;48.606;9.096;2023-06-22T07:44:12;6.83;;;4.27;;
479;SDS011;226;48.606;9.096;2023-06-22T07:46:42;5.90;;;3.90;;
479;SDS011;226;48.606;9.096;2023-06-22T07:49:11;15.23;;;4.97;;
479;SDS011;226;48.606;9.096;2023-06-22T07:51:40;7.30;;;4.50;;
479;SDS011;226;48.606;9.096;2023-06-22T07:54:08;12.73;;;4.40;;
479;SDS011;226;48.606;9.096;2023-06-22T07:56:37;6.67;;;4.23;;
479;SDS011;226;48.606;9.096;2023-06-22T07:59:05;7.30;;;3.57;;
479;SDS011;226;48.606;9.096;2023-06-22T08:01:34;8.50;;;4.20;;
479;SDS011;226;48.606;9.096;2023-06-22T08:04:04;17.73;;;4.70;;
479;SDS011;226;48.606;9.096;2023-06-22T08:06:32;12.70;;;4.40;;
479;SDS011;226;48.606;9.096;2023-06-22T08:09:01;8.83;;;4.40;;
479;SDS011;226;48.606;9.096;2023-06-22T08:11:29;9.27;;;4.67;;
479;SDS011;226;48.606;9.096;2023-06-22T08:13:58;6.80;;;4.30;;
479;SDS011;226;48.606;9.096;2023-06-22T08:16:26;7.67;;;4.40;;
479;SDS011;226;48.606;9.096;2023-06-22T08:18:54;5.97;;;3.93;;
479;SDS011;226;48.606;9.096;2023-06-22T08:21:25;6.83;;;4.73;;
479;SDS011;226;48.606;9.096;2023-06-22T08:23:53;10.43;;;4.93;;
479;SDS011;226;48.606;9.096;2023-06-22T08:26:22;6.10;;;4.80;;
479;SDS011;226;48.606;9.096;2023-06-22T08:28:50;6.40;;;4.07;;
479;SDS011;226;48.606;9.096;2023-06-22T08:31:19;6.00;;;4.00;;
479;SDS011;226;48.606;9.096;2023-06-22T08:33:47;7.60;;;4.70;;
479;SDS011;226;48.606;9.096;2023-06-22T08:36:15;9.03;;;4.33;;
479;SDS011;226;48.606;9.096;2023-06-22T08:38:45;12.30;;;4.10;;
479;SDS011;226;48.606;9.096;2023-06-22T08:41:17;5.43;;;4.27;;
479;SDS011;226;48.606;9.096;2023-06-22T08:43:46;9.40;;;4.30;;
479;SDS011;226;48.606;9.096;2023-06-22T08:46:14;6.80;;;4.50;;
479;SDS011;226;48.606;9.096;2023-06-22T08:48:46;9.03;;;4.37;;
479;SDS011;226;48.606;9.096;2023-06-22T08:51:14;10.20;;;5.07;;
479;SDS011;226;48.606;9.096;2023-06-22T08:53:43;10.13;;;5.20;;
479;SDS011;226;48.606;9.096;2023-06-22T08:56:13;7.10;;;4.90;;
479;SDS011;226;48.606;9.096;2023-06-22T08:58:42;5.70;;;4.30;;
479;SDS011;226;48.606;9.096;2023-06-22T09:01:10;11.37;;;4.90;;
479;SDS011;226;48.606;9.096;2023-06-22T09:03:38;10.50;;;5.07;;
479;SDS011;226;48.606;9.096;2023-06-22T09:06:07;8.67;;;5.00;;
479;SDS011;226;48.606;9.096;2023-06-22T09:08:36;8.17;;;4.50;;
479;SDS011;226;48.606;9.096;2023-06-22T09:11:04;6.27;;;4.30;;
479;SDS011;226;48.606;9.096;2023-06-22T09:13:34;8.87;;;4.83;;
479;SDS011;226;48.606;9.096;2023-06-22T09:16:03;11.37;;;4.87;;
479;SDS011;226;48.606;9.096;2023-06-22T09:18:32;8.90;;;5.00;;
479;SDS011;226;48.606;9.096;2023-06-22T09:21:00;8.53;;;4.77;;
479;SDS011;226;48.606;9.096;2023-06-22T09:23:29;6.87;;;4.33;;
479;SDS011;226;48.606;9.096;2023-06-22T09:25:57;12.60;;;4.67;;
479;SDS011;226;48.606;9.096;2023-06-22T09:28:26;11.33;;;5.27;;
479;SDS011;226;48.606;9.096;2023-06-22T09:30:55;9.03;;;4.80;;
479;SDS011;226;48.606;9.096;2023-06-22T09:33:25;11.17;;;6.00;;
479;SDS011;226;48.606;9.096;2023-06-22T09:35:53;10.20;;;4.30;;
479;SDS011;226;48.606;9.096;2023-06-22T09:38:22;8.50;;;4.70;;
479;SDS011;226;48.606;9.096;2023-06-22T09:40:51;9.20;;;5.07;;
479;SDS011;226;48.606;9.096;2023-06-22T09:43:19;11.67;;;5.07;;
479;SDS011;226;48.606;9.096;2023-06-22T09:45:47;8.97;;;4.80;;
479;SDS011;226;48.606;9.096;2023-06-22T09:48:17;11.07;;;5.53;;
479;SDS011;226;48.606;9.096;2023-06-22T09:50:46;10.27;;;6.10;;
479;SDS011;226;48.606;9.096;2023-06-22T09:53:14;7.47;;;4.70;;
479;SDS011;226;48.606;9.096;2023-06-22T09:55:42;7.47;;;4.60;;
479;SDS011;226;48.606;9.096;2023-06-22T09:58:11;8.27;;;4.80;;
479;SDS011;226;48.606;9.096;2023-06-22T10:00:39;17.13;;;5.47;;
479;SDS011;226;48.606;9.096;2023-06-22T10:03:08;6.73;;;4.10;;
479;SDS011;226;48.606;9.096;2023-06-22T10:05:38;11.67;;;4.90;;
479;SDS011;226;48.606;9.096;2023-06-22T10:08:06;8.67;;;4.37;;
479;SDS011;226;48.606;9.096;2023-06-22T10:10:36;10.73;;;5.20;;
479;SDS011;226;48.606;9.096;2023-06-22T10:13:07;9.00;;;4.63;;
479;SDS011;226;48.606;9.096;2023-06-22T10:15:36;5.63;;;4.43;;
479;SDS011;226;48.606;9.096;2023-06-22T10:18:05;10.73;;;5.20;;
479;SDS011;226;48.606;9.096;2023-06-22T10:20:34;9.43;;;4.30;;
479;SDS011;226;48.606;9.096;2023-06-22T10:23:03;11.23;;;5.17;;
479;SDS011;226;48.606;9.096;2023-06-22T10:25:32;9.57;;;5.33;;
479;SDS011;226;48.606;9.096;2023-06-22T10:28:00;10.30;;;5.17;;
479;SDS011;226;48.606;9.096;2023-06-22T10:30:29;7.00;;;3.83;;
479;SDS011;226;48.606;9.096;2023-06-22T10:32:57;7.90;;;4.83;;
479;SDS011;226;48.606;9.096;2023-06-22T10:35:25;12.00;;;5.20;;
479;SDS011;226;48.606;9.096;2023-06-22T10:37:54;11.97;;;5.50;;
479;SDS011;226;48.606;9.096;2023-06-22T10:40:24;12.27;;;5.00;;
479;SDS011;226;48.606;9.096;2023-06-22T10:42:53;8.77;;;4.47;;
479;SDS011;226;48.606;9.096;2023-06-22T10:45:21;8.60;;;4.83;;
479;SDS011;226;48.606;9.096;2023-06-22T10:47:50;7.20;;;4.27;;
479;SDS011;226;48.606;9.096;2023-06-22T10:50:18;9.27;;;4.93;;
479;SDS011;226;48.606;9.096;2023-06-22T10:52:47;18.90;;;5.60;;
479;SDS011;226;48.606;9.096;2023-06-22T10:55:18;11.23;;;5.23;;
479;SDS011;226;48.606;9.096;2023-06-22T10:57:47;13.93;;;4.70;;
479;SDS011;226;48.606;9.096;2023-06-22T11:00:16;7.43;;;4.47;;
479;SDS011;226;48.606;9.096;2023-06-22T11:02:44;7.70;;;4.77;;
479;SDS011;226;48.606;9.096;2023-06-22T11:05:13;14.13;;;5.03;;
479;SDS011;226;48.606;9.096;2023-06-22T11:07:42;9.10;;;4.90;;
479;SDS011;226;48.606;9.096;2023-06-22T11:10:12;13.13;;;5.50;;
479;SDS011;226;48.606;9.096;2023-06-22T11:12:41;11.27;;;4.70;;
479;SDS011;226;48.606;9.096;2023-06-22T11:15:11;17.40;;;5.40;;
479;SDS011;226;48.606;9.096;2023-06-22T11:17:39;13.20;;;5.20;;
479;SDS011;226;48.606;9.096;2023-06-22T11:20:08;9.83;;;4.73;;
479;SDS011;226;48.606;9.096;2023-06-22T11:22:38;8.83;;;4.70;;
479;SDS011;226;48.606;9.096;2023-06-22T11:25:06;9.10;;;5.17;;
479;SDS011;226;48.606;9.096;2023-06-22T11:27:35;10.40;;;4.87;;
479;SDS011;226;48.606;9.096;2023-06-22T11:30:04;8.10;;;4.60;;
479;SDS011;226;48.606;9.096;2023-06-22T11:32:34;11.33;;;5.67;;
479;SDS011;226;48.606;9.096;2023-06-22T11:35:03;6.00;;;4.40;;
479;SDS011;226;48.606;9.096;2023-06-22T11:37:31;10.23;;;4.03;;
479;SDS011;226;48.606;9.096;2023-06-22T11:40:00;7.97;;;4.60;;
479;SDS011;226;48.606;9.096;2023-06-22T11:42:33;9.47;;;4.60;;
479;SDS011;226;48.606;9.096;2023-06-22T11:45:01;6.47;;;4.70;;
479;SDS011;226;48.606;9.096;2023-06-22T11:47:31;5.20;;;3.83;;
479;SDS011;226;48.606;9.096;2023-06-22T11:50:01;7.37;;;4.63;;
479;SDS011;226;48.606;9.096;2023-06-22T11:52:29;12.87;;;5.10;;
479;SDS011;226;48.606;9.096;2023-06-22T11:54:58;9.10;;;4.87;;
479;SDS011;226;48.606;9.096;2023-06-22T11:57:29;9.23;;;4.30;;
479;SDS011;226;48.606;9.096;2023-06-22T11:59:57;5.10;;;3.90;;
479;SDS011;226;48.606;9.096;2023-06-22T12:02:25;7.00;;;5.00;;
479;SDS011;226;48.606;9.096;2023-06-22T12:04:54;15.00;;;4.20;;
479;SDS011;226;48.606;9.096;2023-06-22T12:07:25;8.93;;;4.50;;
479;SDS011;226;48.606;9.096;2023-06-22T12:09:54;9.30;;;3.83;;
479;SDS011;226;48.606;9.096;2023-06-22T12:12:22;7.30;;;4.50;;
479;SDS011;226;48.606;9.096;2023-06-22T12:14:51;11.43;;;6.00;;
479;SDS011;226;48.606;9.096;2023-06-22T12:17:19;11.03;;;5.30;;
479;SDS011;226;48.606;9.096;2023-06-22T12:19:47;8.43;;;4.10;;
479;SDS011;226;48.606;9.096;2023-06-22T12:22:16;11.33;;;4.80;;
479;SDS011;226;48.606;9.096;2023-06-22T12:24:46;5.60;;;3.60;;
479;SDS011;226;48.606;9.096;2023-06-22T12:27:14;8.77;;;4.27;;
479;SDS011;226;48.606;9.096;2023-06-22T12:29:45;12.63;;;5.63;;
479;SDS011;226;48.606;9.096;2023-06-22T12:32:14;7.80;;;4.40;;
479;SDS011;226;48.606;9.096;2023-06-22T12:34:42;11.33;;;4.97;;
479;SDS011;226;48.606;9.096;2023-06-22T12:37:11;7.20;;;5.00;;
479;SDS011;226;48.606;9.096;2023-06-22T12:39:40;8.17;;;4.70;;
479;SDS011;226;48.606;9.096;2023-06-22T12:42:09;7.27;;;4.50;;
479;SDS011;226;48.606;9.096;2023-06-22T12:44:38;6.47;;;4.83;;
479;SDS011;226;48.606;9.096;2023-06-22T12:47:07;12.63;;;5.10;;
479;SDS011;226;48.606;9.096;2023-06-22T12:49:35;7.40;;;4.60;;
479;SDS011;226;48.606;9.096;2023-06-22T12:52:08;8.07;;;4.80;;
479;SDS011;226;48.606;9.096;2023-06-22T12:54:37;9.20;;;5.63;;
479;SDS011;226;48.606;9.096;2023-06-22T12:57:21;13.30;;;4.50;;
479;SDS011;226;48.606;9.096;2023-06-22T12:59:50;7.20;;;3.67;;
479;SDS011;226;48.606;9.096;2023-06-22T13:02:18;6.83;;;4.50;;
479;SDS011;226;48.606;9.096;2023-06-22T13:04:47;11.23;;;4.77;;
479;SDS011;226;48.606;9.096;2023-06-22T13:07:15;10.00;;;5.43;;
479;SDS011;226;48.606;9.096;2023-06-22T13:09:49;9.57;;;5.63;;
479;SDS011;226;48.606;9.096;2023-06-22T13:12:19;12.00;;;4.70;;
479;SDS011;226;48.606;9.096;2023-06-22T13:14:49;6.53;;;4.93;;
479;SDS011;226;48.606;9.096;2023-06-22T13:17:17;11.50;;;5.70;;
479;SDS011;226;48.606;9.096;2023-06-22T13:19:46;9.83;;;4.20;;
479;SDS011;226;48.606;9.096;2023-06-22T13:22:27;14.93;;;5.47;;
479;SDS011;226;48.606;9.096;2023-06-22T13:24:56;12.37;;;4.60;;
479;SDS011;226;48.606;9.096;2023-06-22T13:27:28;7.87;;;4.43;;
479;SDS011;226;48.606;9.096;2023-06-22T13:29:58;6.17;;;4.13;;
479;SDS011;226;48.606;9.096;2023-06-22T13:32:30;10.20;;;5.10;;
479;SDS011;226;48.606;9.096;2023-06-22T13:34:58;9.50;;;4.60;;
479;SDS011;226;48.606;9.096;2023-06-22T13:37:26;10.00;;;5.23;;
479;SDS011;226;48.606;9.096;2023-06-22T13:39:55;7.80;;;4.40;;
479;SDS011;226;48.606;9.096;2023-06-22T13:42:25;7.47;;;5.20;;
479;SDS011;226;48.606;9.096;2023-06-22T13:44:54;6.50;;;4.37;;
479;SDS011;226;48.606;9.096;2023-06-22T13:47:23;9.40;;;5.03;;
479;SDS011;226;48.606;9.096;2023-06-22T13:49:55;7.60;;;5.00;;
479;SDS011;226;48.606;9.096;2023-06-22T13:52:25;11.33;;;4.70;;
479;SDS011;226;48.606;9.096;2023-06-22T13:54:53;12.27;;;5.07;;
479;SDS011;226;48.606;9.096;2023-06-22T13:57:24;12.03;;;5.23;;
479;SDS011;226;48.606;9.096;2023-06-22T13:59:53;6.00;;;4.63;;
479;SDS011;226;48.606;9.096;2023-06-22T14:02:21;7.43;;;4.00;;
479;SDS011;226;48.606;9.096;2023-06-22T14:04:51;11.20;;;4.90;;
479;SDS011;226;48.606;9.096;2023-06-22T14:07:19;10.30;;;4.90;;
479;SDS011;226;48.606;9.096;2023-06-22T14:09:47;9.10;;;4.93;;
479;SDS011;226;48.606;9.096;2023-06-22T14:12:16;10.20;;;4.77;;
479;SDS011;226;48.606;9.096;2023-06-22T14:14:45;8.90;;;4.77;;
479;SDS011;226;48.606;9.096;2023-06-22T14:17:13;6.57;;;4.40;;
479;SDS011;226;48.606;9.096;2023-06-22T14:19:43;6.80;;;4.73;;
479;SDS011;226;48.606;9.096;2023-06-22T14:22:11;8.27;;;4.50;;
479;SDS011;226;48.606;9.096;2023-06-22T14:24:39;7.20;;;5.37;;
479;SDS011;226;48.606;9.096;2023-06-22T14:27:07;9.57;;;4.60;;
479;SDS011;226;48.606;9.096;2023-06-22T14:29:35;7.57;;;5.67;;
479;SDS011;226;48.606;9.096;2023-06-22T14:32:04;8.73;;;4.77;;
479;SDS011;226;48.606;9.096;2023-06-22T14:34:33;17.00;;;4.93;;
479;SDS011;226;48.606;9.096;2023-06-22T14:37:04;4.70;;;3.77;;
479;SDS011;226;48.606;9.096;2023-06-22T14:39:32;8.50;;;3.73;;
479;SDS011;226;48.606;9.096;2023-06-22T14:42:01;10.67;;;3.43;;
479;SDS011;226;48.606;9.096;2023-06-22T14:44:31;13.53;;;3.70;;
479;SDS011;226;48.606;9.096;2023-06-22T14:46:59;8.70;;;4.67;;
479;SDS011;226;48.606;9.096;2023-06-22T14:49:28;10.90;;;4.23;;
479;SDS011;226;48.606;9.096;2023-06-22T14:51:56;11.43;;;2.87;;
479;SDS011;226;48.606;9.096;2023-06-22T14:54:26;4.27;;;3.47;;
479;SDS011;226;48.606;9.096;2023-06-22T14:56:54;14.23;;;4.70;;
479;SDS011;226;48.606;9.096;2023-06-22T14:59:22;7.00;;;2.20;;
479;SDS011;226;48.606;9.096;2023-06-22T15:01:50;5.40;;;2.40;;
479;SDS011;226;48.606;9.096;2023-06-22T15:04:18;11.57;;;3.17;;
479;SDS011;226;48.606;9.096;2023-06-22T15:06:46;9.70;;;2.83;;
479;SDS011;226;48.606;9.096;2023-06-22T15:09:14;6.40;;;2.20;;
479;SDS011;226;48.606;9.096;2023-06-22T15:11:44;6.60;;;2.47;;
479;SDS011;226;48.606;9.096;2023-06-22T15:14:13;4.70;;;2.50;;
479;SDS011;226;48.606;9.096;2023-06-22T15:16:41;13.47;;;3.00;;
479;SDS011;226;48.606;9.096;2023-06-22T15:19:09;15.20;;;3.47;;
479;SDS011;226;48.606;9.096;2023-06-22T15:21:39;10.57;;;4.00;;
479;SDS011;226;48.606;9.096;2023-06-22T15:24:07;8.33;;;2.27;;
479;SDS011;226;48.606;9.096;2023-06-22T15:26:35;8.23;;;2.73;;
479;SDS011;226;48.606;9.096;2023-06-22T15:29:05;8.20;;;2.83;;
479;SDS011;226;48.606;9.096;2023-06-22T15:31:33;7.30;;;4.10;;
479;SDS011;226;48.606;9.096;2023-06-22T15:34:02;5.90;;;2.10;;
479;SDS011;226;48.606;9.096;2023-06-22T15:36:30;8.97;;;3.80;;
479;SDS011;226;48.606;9.096;2023-06-22T15:39:00;8.97;;;2.67;;
479;SDS011;226;48.606;9.096;2023-06-22T15:41:28;11.13;;;2.10;;
479;SDS011;226;48.606;9.096;2023-06-22T15:43:56;4.67;;;2.20;;
479;SDS011;226;48.606;9.096;2023-06-22T15:46:27;5.63;;;2.40;;